Weather at Adelaide International Airport

Public forecast

Using degrees Celsius for public forecast. Weather courtesy of forecast.io.

Current aviation weather report (METAR) for Adelaide International Airport

Retrieved 2020/10/01 22:30 UTC (0 seconds ago):

YPAD 012230Z 03011KT CAVOK 23/07 Q1016

Aviation forecast (TAF) for Adelaide International Airport

Retrieved 2020/10/01 18:36 UTC (4 hours ago):

TAF YPAD 011708Z 0118/0300 02009KT CAVOK FM020000 34017G27KT CAVOK FM020600 36014KT CAVOK FM021000 02013KT CAVOK